sensor_id;sensor_type;location;lat;lon;timestamp;pressure;altitude;pressure_sealevel;temperature;humidity
21877;BME280;11103;43.788;23.710;2023-02-16T00:00:22;147297.28;;;3.67;100.00
21877;BME280;11103;43.788;23.710;2023-02-16T00:02:48;147278.22;;;3.59;100.00
21877;BME280;11103;43.788;23.710;2023-02-16T00:05:26;147275.72;;;3.58;100.00
21877;BME280;11103;43.788;23.710;2023-02-16T00:07:52;147251.50;;;3.49;100.00
21877;BME280;11103;43.788;23.710;2023-02-16T00:10:19;147243.88;;;3.46;100.00
21877;BME280;11103;43.788;23.710;2023-02-16T00:13:24;147240.09;;;3.44;100.00
21877;BME280;11103;43.788;23.710;2023-02-16T00:16:20;147228.63;;;3.40;100.00
21877;BME280;11103;43.788;23.710;2023-02-16T00:18:46;147223.53;;;3.38;100.00
21877;BME280;11103;43.788;23.710;2023-02-16T00:21:13;147223.53;;;3.38;100.00
21877;BME280;11103;43.788;23.710;2023-02-16T00:23:39;147189.22;;;3.24;100.00
21877;BME280;11103;43.788;23.710;2023-02-16T00:26:05;147163.81;;;3.14;100.00
21877;BME280;11103;43.788;23.710;2023-02-16T00:28:35;147139.63;;;3.05;100.00
21877;BME280;11103;43.788;23.710;2023-02-16T00:31:00;147159.97;;;3.13;100.00
21877;BME280;11103;43.788;23.710;2023-02-16T00:33:26;147166.34;;;3.15;100.00
21877;BME280;11103;43.788;23.710;2023-02-16T00:35:51;147148.53;;;3.08;100.00
21877;BME280;11103;43.788;23.710;2023-02-16T00:38:16;147104.06;;;2.90;100.00
21877;BME280;11103;43.788;23.710;2023-02-16T00:40:42;147102.78;;;2.90;100.00
21877;BME280;11103;43.788;23.710;2023-02-16T00:43:15;147069.75;;;2.77;100.00
21877;BME280;11103;43.788;23.710;2023-02-16T00:45:45;146992.25;;;2.46;100.00
21877;BME280;11103;43.788;23.710;2023-02-16T00:48:11;146978.28;;;2.40;100.00
21877;BME280;11103;43.788;23.710;2023-02-16T00:50:36;146965.56;;;2.35;100.00
21877;BME280;11103;43.788;23.710;2023-02-16T00:53:02;146954.16;;;2.31;100.00
21877;BME280;11103;43.788;23.710;2023-02-16T00:55:32;146959.22;;;2.33;100.00
21877;BME280;11103;43.788;23.710;2023-02-16T01:00:35;146945.25;;;2.27;100.00
21877;BME280;11103;43.788;23.710;2023-02-16T01:03:06;146978.28;;;2.40;100.00
21877;BME280;11103;43.788;23.710;2023-02-16T01:05:33;146923.66;;;2.19;100.00
21877;BME280;11103;43.788;23.710;2023-02-16T01:07:59;146923.66;;;2.19;100.00
21877;BME280;11103;43.788;23.710;2023-02-16T01:10:43;146912.25;;;2.14;100.00
21877;BME280;11103;43.788;23.710;2023-02-16T01:16:03;146923.66;;;2.19;100.00
21877;BME280;11103;43.788;23.710;2023-02-16T01:18:29;146891.91;;;2.06;100.00
21877;BME280;11103;43.788;23.710;2023-02-16T01:20:54;146926.22;;;2.20;100.00
21877;BME280;11103;43.788;23.710;2023-02-16T01:23:20;146907.13;;;2.12;100.00
21877;BME280;11103;43.788;23.710;2023-02-16T01:25:45;146904.63;;;2.11;100.00
21877;BME280;11103;43.788;23.710;2023-02-16T01:28:22;146902.06;;;2.10;100.00
21877;BME280;11103;43.788;23.710;2023-02-16T01:30:49;146932.56;;;2.22;100.00
21877;BME280;11103;43.788;23.710;2023-02-16T01:33:15;146977.00;;;2.40;100.00
21877;BME280;11103;43.788;23.710;2023-02-16T01:35:41;146978.28;;;2.40;100.00
21877;BME280;11103;43.788;23.710;2023-02-16T01:38:15;146897.00;;;2.08;100.00
21877;BME280;11103;43.788;23.710;2023-02-16T01:40:48;146799.22;;;1.69;100.00
21877;BME280;11103;43.788;23.710;2023-02-16T01:43:24;146832.22;;;1.83;100.00
21877;BME280;11103;43.788;23.710;2023-02-16T01:45:57;146833.50;;;1.83;100.00
21877;BME280;11103;43.788;23.710;2023-02-16T01:48:29;146829.69;;;1.82;100.00
21877;BME280;11103;43.788;23.710;2023-02-16T01:51:13;146824.59;;;1.79;100.00
21877;BME280;11103;43.788;23.710;2023-02-16T01:53:59;146829.69;;;1.82;100.00
21877;BME280;11103;43.788;23.710;2023-02-16T01:56:51;146825.88;;;1.80;100.00
21877;BME280;11103;43.788;23.710;2023-02-16T02:02:04;146770.00;;;1.58;100.00
21877;BME280;11103;43.788;23.710;2023-02-16T02:04:43;146752.25;;;1.51;100.00
21877;BME280;11103;43.788;23.710;2023-02-16T02:10:20;146772.56;;;1.59;100.00
21877;BME280;11103;43.788;23.710;2023-02-16T02:13:01;146825.88;;;1.80;100.00
21877;BME280;11103;43.788;23.710;2023-02-16T02:15:30;146794.16;;;1.67;100.00
21877;BME280;11103;43.788;23.710;2023-02-16T02:17:56;146726.88;;;1.41;100.00
21877;BME280;11103;43.788;23.710;2023-02-16T02:36:50;146881.75;;;2.02;100.00
21877;BME280;11103;43.788;23.710;2023-02-16T02:39:38;146893.16;;;2.07;100.00
21877;BME280;11103;43.788;23.710;2023-02-16T02:45:10;146833.50;;;1.83;100.00
21877;BME280;11103;43.788;23.710;2023-02-16T02:47:43;146810.63;;;1.74;100.00
21877;BME280;11103;43.788;23.710;2023-02-16T02:50:33;146780.19;;;1.62;100.00
21877;BME280;11103;43.788;23.710;2023-02-16T02:53:04;146771.28;;;1.58;100.00
21877;BME280;11103;43.788;23.710;2023-02-16T02:55:32;146803.03;;;1.71;100.00
21877;BME280;11103;43.788;23.710;2023-02-16T02:58:20;146853.81;;;1.91;100.00
21877;BME280;11103;43.788;23.710;2023-02-16T03:01:06;146876.69;;;2.00;100.00
21877;BME280;11103;43.788;23.710;2023-02-16T03:03:38;146874.13;;;1.99;100.00
21877;BME280;11103;43.788;23.710;2023-02-16T03:06:07;146897.00;;;2.08;100.00
21877;BME280;11103;43.788;23.710;2023-02-16T03:08:36;146907.13;;;2.12;100.00
21877;BME280;11103;43.788;23.710;2023-02-16T03:11:11;146909.69;;;2.13;100.00
21877;BME280;11103;43.788;23.710;2023-02-16T03:14:09;146968.09;;;2.36;100.00
21877;BME280;11103;43.788;23.710;2023-02-16T03:16:45;146954.16;;;2.31;100.00
21877;BME280;11103;43.788;23.710;2023-02-16T03:19:16;146959.22;;;2.33;100.00
21877;BME280;11103;43.788;23.710;2023-02-16T03:22:01;146949.03;;;2.29;100.00
21877;BME280;11103;43.788;23.710;2023-02-16T03:24:46;146952.88;;;2.30;100.00
21877;BME280;11103;43.788;23.710;2023-02-16T03:27:33;146955.38;;;2.31;100.00
21877;BME280;11103;43.788;23.710;2023-02-16T03:30:19;146952.88;;;2.30;100.00
21877;BME280;11103;43.788;23.710;2023-02-16T03:32:46;146881.75;;;2.02;100.00
21877;BME280;11103;43.788;23.710;2023-02-16T03:35:12;146837.31;;;1.85;100.00
21877;BME280;11103;43.788;23.710;2023-02-16T03:37:41;146832.22;;;1.83;100.00
21877;BME280;11103;43.788;23.710;2023-02-16T03:40:10;146883.00;;;2.03;100.00
21877;BME280;11103;43.788;23.710;2023-02-16T03:43:00;146813.19;;;1.75;100.00
21877;BME280;11103;43.788;23.710;2023-02-16T03:45:26;146830.97;;;1.82;100.00
21877;BME280;11103;43.788;23.710;2023-02-16T03:47:53;146832.22;;;1.83;100.00
21877;BME280;11103;43.788;23.710;2023-02-16T03:50:19;146843.66;;;1.87;100.00
21877;BME280;11103;43.788;23.710;2023-02-16T03:52:45;146828.41;;;1.81;100.00
21877;BME280;11103;43.788;23.710;2023-02-16T03:55:10;146809.38;;;1.73;100.00
21877;BME280;11103;43.788;23.710;2023-02-16T03:57:36;146804.28;;;1.71;100.00
21877;BME280;11103;43.788;23.710;2023-02-16T04:00:02;146806.84;;;1.72;100.00
21877;BME280;11103;43.788;23.710;2023-02-16T04:02:27;146797.94;;;1.69;100.00
21877;BME280;11103;43.788;23.710;2023-02-16T04:04:53;146809.38;;;1.73;100.00
21877;BME280;11103;43.788;23.710;2023-02-16T04:07:18;146785.25;;;1.64;100.00
21877;BME280;11103;43.788;23.710;2023-02-16T04:09:44;146825.88;;;1.80;100.00
21877;BME280;11103;43.788;23.710;2023-02-16T04:12:11;146853.81;;;1.91;100.00
21877;BME280;11103;43.788;23.710;2023-02-16T04:15:18;146841.13;;;1.86;100.00
21877;BME280;11103;43.788;23.710;2023-02-16T04:17:44;146813.19;;;1.75;100.00
21877;BME280;11103;43.788;23.710;2023-02-16T04:20:12;146785.25;;;1.64;100.00
21877;BME280;11103;43.788;23.710;2023-02-16T04:22:38;146737.00;;;1.45;100.00
21877;BME280;11103;43.788;23.710;2023-02-16T04:25:05;146707.84;;;1.33;100.00
21877;BME280;11103;43.788;23.710;2023-02-16T04:27:30;146679.94;;;1.22;100.00
21877;BME280;11103;43.788;23.710;2023-02-16T04:29:56;146705.31;;;1.32;100.00
21877;BME280;11103;43.788;23.710;2023-02-16T04:32:21;146705.31;;;1.32;100.00
21877;BME280;11103;43.788;23.710;2023-02-16T04:34:47;146707.84;;;1.33;100.00
21877;BME280;11103;43.788;23.710;2023-02-16T04:37:12;146668.47;;;1.17;100.00
21877;BME280;11103;43.788;23.710;2023-02-16T04:39:38;146682.44;;;1.23;100.00
21877;BME280;11103;43.788;23.710;2023-02-16T04:42:03;146650.75;;;1.10;100.00
21877;BME280;11103;43.788;23.710;2023-02-16T04:44:29;146662.16;;;1.15;100.00
21877;BME280;11103;43.788;23.710;2023-02-16T04:46:54;146728.16;;;1.41;100.00
21877;BME280;11103;43.788;23.710;2023-02-16T04:49:20;146691.34;;;1.27;100.00
21877;BME280;11103;43.788;23.710;2023-02-16T04:51:46;146621.56;;;0.99;100.00
21877;BME280;11103;43.788;23.710;2023-02-16T04:54:11;146630.44;;;1.02;100.00
21877;BME280;11103;43.788;23.710;2023-02-16T04:56:37;146612.66;;;0.95;100.00
21877;BME280;11103;43.788;23.710;2023-02-16T04:59:02;146643.13;;;1.07;100.00
21877;BME280;11103;43.788;23.710;2023-02-16T05:01:28;146659.63;;;1.14;100.00
21877;BME280;11103;43.788;23.710;2023-02-16T05:03:54;146716.72;;;1.37;100.00
21877;BME280;11103;43.788;23.710;2023-02-16T05:06:19;146740.84;;;1.46;100.00
21877;BME280;11103;43.788;23.710;2023-02-16T05:08:45;146714.19;;;1.36;100.00
21877;BME280;11103;43.788;23.710;2023-02-16T05:11:11;146639.34;;;1.06;100.00
21877;BME280;11103;43.788;23.710;2023-02-16T05:13:56;146688.78;;;1.26;100.00
21877;BME280;11103;43.788;23.710;2023-02-16T05:16:41;146649.47;;;1.10;100.00
21877;BME280;11103;43.788;23.710;2023-02-16T05:19:07;146639.34;;;1.06;100.00
21877;BME280;11103;43.788;23.710;2023-02-16T05:21:32;146603.81;;;0.92;100.00
21877;BME280;11103;43.788;23.710;2023-02-16T05:24:02;146582.25;;;0.83;100.00
21877;BME280;11103;43.788;23.710;2023-02-16T05:26:28;146544.16;;;0.68;100.00
21877;BME280;11103;43.788;23.710;2023-02-16T05:28:54;146551.78;;;0.71;100.00
21877;BME280;11103;43.788;23.710;2023-02-16T05:31:21;146561.94;;;0.75;100.00
21877;BME280;11103;43.788;23.710;2023-02-16T05:33:46;146492.19;;;0.47;100.00
21877;BME280;11103;43.788;23.710;2023-02-16T05:36:12;146561.94;;;0.75;100.00
21877;BME280;11103;43.788;23.710;2023-02-16T05:38:37;146621.56;;;0.99;100.00
21877;BME280;11103;43.788;23.710;2023-02-16T05:41:03;146635.50;;;1.04;100.00
21877;BME280;11103;43.788;23.710;2023-02-16T05:43:28;146634.22;;;1.04;100.00
21877;BME280;11103;43.788;23.710;2023-02-16T05:45:54;146737.00;;;1.45;100.00
21877;BME280;11103;43.788;23.710;2023-02-16T05:48:19;146787.81;;;1.65;100.00
21877;BME280;11103;43.788;23.710;2023-02-16T05:50:45;146891.91;;;2.06;100.00
21877;BME280;11103;43.788;23.710;2023-02-16T05:53:10;146912.25;;;2.14;100.00
21877;BME280;11103;43.788;23.710;2023-02-16T05:55:36;146823.34;;;1.79;100.00
21877;BME280;11103;43.788;23.710;2023-02-16T05:58:01;146800.50;;;1.70;100.00
21877;BME280;11103;43.788;23.710;2023-02-16T06:00:27;146838.56;;;1.85;100.00
21877;BME280;11103;43.788;23.710;2023-02-16T06:02:52;146905.91;;;2.12;100.00
21877;BME280;11103;43.788;23.710;2023-02-16T06:05:18;146999.88;;;2.49;100.00
21877;BME280;11103;43.788;23.710;2023-02-16T06:07:43;147110.44;;;2.93;100.00
21877;BME280;11103;43.788;23.710;2023-02-16T06:10:10;147265.50;;;3.54;100.00
21877;BME280;11103;43.788;23.710;2023-02-16T06:12:36;147293.50;;;3.66;100.00
21877;BME280;11103;43.788;23.710;2023-02-16T06:15:01;147407.97;;;4.11;100.00
21877;BME280;11103;43.788;23.710;2023-02-16T06:17:27;147598.88;;;4.87;100.00
21877;BME280;11103;43.788;23.710;2023-02-16T06:19:53;147778.47;;;5.58;100.00
21877;BME280;11103;43.788;23.710;2023-02-16T06:22:18;147908.50;;;6.09;100.00
21877;BME280;11103;43.788;23.710;2023-02-16T06:24:44;147920.00;;;6.14;100.00
21877;BME280;11103;43.788;23.710;2023-02-16T06:27:09;147939.13;;;6.21;100.00
21877;BME280;11103;43.788;23.710;2023-02-16T06:29:35;147839.63;;;5.82;100.00
21877;BME280;11103;43.788;23.710;2023-02-16T06:32:00;147719.88;;;5.34;100.00
21877;BME280;11103;43.788;23.710;2023-02-16T06:34:26;147718.59;;;5.34;100.00
21877;BME280;11103;43.788;23.710;2023-02-16T06:36:51;147647.25;;;5.06;100.00
21877;BME280;11103;43.788;23.710;2023-02-16T06:39:16;147604.00;;;4.89;100.00
21877;BME280;11103;43.788;23.710;2023-02-16T06:41:42;147611.66;;;4.92;100.00
21877;BME280;11103;43.788;23.710;2023-02-16T06:44:13;147540.34;;;4.63;100.00
21877;BME280;11103;43.788;23.710;2023-02-16T06:46:41;147512.31;;;4.52;100.00
21877;BME280;11103;43.788;23.710;2023-02-16T06:49:06;147584.88;;;4.81;100.00
21877;BME280;11103;43.788;23.710;2023-02-16T06:51:32;147652.41;;;5.08;100.00
21877;BME280;11103;43.788;23.710;2023-02-16T06:53:57;147693.16;;;5.24;100.00
21877;BME280;11103;43.788;23.710;2023-02-16T06:56:23;147693.16;;;5.24;100.00
21877;BME280;11103;43.788;23.710;2023-02-16T06:58:49;147685.50;;;5.21;100.00
21877;BME280;11103;43.788;23.710;2023-02-16T07:01:15;147668.94;;;5.14;100.00
21877;BME280;11103;43.788;23.710;2023-02-16T07:03:42;147677.84;;;5.18;100.00
21877;BME280;11103;43.788;23.710;2023-02-16T07:06:07;147646.03;;;5.05;100.00
21877;BME280;11103;43.788;23.710;2023-02-16T07:08:33;147663.84;;;5.12;100.00
21877;BME280;11103;43.788;23.710;2023-02-16T07:10:58;147693.16;;;5.24;100.00
21877;BME280;11103;43.788;23.710;2023-02-16T07:13:24;147723.69;;;5.36;100.00
21877;BME280;11103;43.788;23.710;2023-02-16T07:15:49;147770.81;;;5.55;100.00
21877;BME280;11103;43.788;23.710;2023-02-16T07:18:15;147739.00;;;5.42;100.00
21877;BME280;11103;43.788;23.710;2023-02-16T07:20:40;147763.22;;;5.52;100.00
21877;BME280;11103;43.788;23.710;2023-02-16T07:23:06;147751.72;;;5.47;100.00
21877;BME280;11103;43.788;23.710;2023-02-16T07:25:31;147772.09;;;5.55;100.00
21877;BME280;11103;43.788;23.710;2023-02-16T07:27:57;147823.09;;;5.75;100.00
21877;BME280;11103;43.788;23.710;2023-02-16T07:30:23;147795.06;;;5.64;100.00
21877;BME280;11103;43.788;23.710;2023-02-16T07:32:48;147833.25;;;5.79;100.00
21877;BME280;11103;43.788;23.710;2023-02-16T07:35:14;147852.47;;;5.87;100.00
21877;BME280;11103;43.788;23.710;2023-02-16T07:37:39;147870.28;;;5.94;100.00
21877;BME280;11103;43.788;23.710;2023-02-16T07:40:05;147891.97;;;6.03;100.00
21877;BME280;11103;43.788;23.710;2023-02-16T07:42:31;147939.13;;;6.21;100.00
21877;BME280;11103;43.788;23.710;2023-02-16T07:44:58;147876.66;;;5.96;100.00
21877;BME280;11103;43.788;23.710;2023-02-16T07:47:23;147889.41;;;6.02;100.00
21877;BME280;11103;43.788;23.710;2023-02-16T07:49:48;148041.13;;;6.62;100.00
21877;BME280;11103;43.788;23.710;2023-02-16T07:52:14;148014.34;;;6.51;100.00
21877;BME280;11103;43.788;23.710;2023-02-16T07:54:39;148050.06;;;6.65;100.00
21877;BME280;11103;43.788;23.710;2023-02-16T07:57:05;148043.69;;;6.63;100.00
21877;BME280;11103;43.788;23.710;2023-02-16T07:59:31;148039.84;;;6.61;100.00
21877;BME280;11103;43.788;23.710;2023-02-16T08:01:56;148048.78;;;6.65;100.00
21877;BME280;11103;43.788;23.710;2023-02-16T08:04:21;148056.44;;;6.68;100.00
21877;BME280;11103;43.788;23.710;2023-02-16T08:06:47;148073.00;;;6.74;100.00
21877;BME280;11103;43.788;23.710;2023-02-16T08:09:16;148101.06;;;6.85;100.00
21877;BME280;11103;43.788;23.710;2023-02-16T08:11:42;148125.31;;;6.95;100.00
21877;BME280;11103;43.788;23.710;2023-02-16T08:14:07;148175.09;;;7.14;100.00
21877;BME280;11103;43.788;23.710;2023-02-16T08:16:33;148178.88;;;7.16;100.00
21877;BME280;11103;43.788;23.710;2023-02-16T08:19:00;148185.25;;;7.18;100.00
21877;BME280;11103;43.788;23.710;2023-02-16T08:21:30;148223.56;;;7.34;100.00
21877;BME280;11103;43.788;23.710;2023-02-16T08:24:00;148231.19;;;7.37;100.00
21877;BME280;11103;43.788;23.710;2023-02-16T08:26:28;148221.00;;;7.33;100.00
21877;BME280;11103;43.788;23.710;2023-02-16T08:28:56;148210.78;;;7.29;100.00
21877;BME280;11103;43.788;23.710;2023-02-16T08:31:24;148266.94;;;7.51;100.00
21877;BME280;11103;43.788;23.710;2023-02-16T08:33:52;148246.53;;;7.43;100.00
21877;BME280;11103;43.788;23.710;2023-02-16T08:36:32;148232.47;;;7.37;100.00
21877;BME280;11103;43.788;23.710;2023-02-16T08:39:03;148251.59;;;7.45;100.00
21877;BME280;11103;43.788;23.710;2023-02-16T08:41:34;148338.44;;;7.79;100.00
21877;BME280;11103;43.788;23.710;2023-02-16T08:44:00;148362.69;;;7.89;100.00
21877;BME280;11103;43.788;23.710;2023-02-16T08:46:27;148369.06;;;7.91;100.00
21877;BME280;11103;43.788;23.710;2023-02-16T08:48:56;148438.00;;;8.18;100.00
21877;BME280;11103;43.788;23.710;2023-02-16T08:51:27;148443.16;;;8.20;100.00
21877;BME280;11103;43.788;23.710;2023-02-16T08:53:53;148476.41;;;8.33;100.00
21877;BME280;11103;43.788;23.710;2023-02-16T08:56:21;148464.88;;;8.29;100.00
21877;BME280;11103;43.788;23.710;2023-02-16T08:58:46;148455.91;;;8.25;100.00
21877;BME280;11103;43.788;23.710;2023-02-16T09:01:13;148509.59;;;8.47;100.00
21877;BME280;11103;43.788;23.710;2023-02-16T09:03:40;148504.50;;;8.45;100.00
21877;BME280;11103;43.788;23.710;2023-02-16T09:06:08;148510.91;;;8.47;100.00
21877;BME280;11103;43.788;23.710;2023-02-16T09:08:35;148556.88;;;8.65;100.00
21877;BME280;11103;43.788;23.710;2023-02-16T09:11:06;148553.06;;;8.64;100.00
21877;BME280;11103;43.788;23.710;2023-02-16T09:13:33;148547.91;;;8.62;100.00
21877;BME280;11103;43.788;23.710;2023-02-16T09:16:11;148508.31;;;8.46;100.00
21877;BME280;11103;43.788;23.710;2023-02-16T09:18:38;148593.94;;;8.80;100.00
21877;BME280;11103;43.788;23.710;2023-02-16T09:21:09;148573.50;;;8.72;100.00
21877;BME280;11103;43.788;23.710;2023-02-16T09:23:39;148596.47;;;8.81;100.00
21877;BME280;11103;43.788;23.710;2023-02-16T09:26:05;148590.09;;;8.78;100.00
21877;BME280;11103;43.788;23.710;2023-02-16T09:28:33;148632.25;;;8.95;100.00
21877;BME280;11103;43.788;23.710;2023-02-16T09:30:59;148637.38;;;8.97;100.00
21877;BME280;11103;43.788;23.710;2023-02-16T09:33:25;148673.16;;;9.11;100.00
21877;BME280;11103;43.788;23.710;2023-02-16T09:35:52;148662.97;;;9.07;100.00
21877;BME280;11103;43.788;23.710;2023-02-16T09:38:18;148611.81;;;8.87;100.00
21877;BME280;11103;43.788;23.710;2023-02-16T09:40:45;148654.00;;;9.04;100.00
21877;BME280;11103;43.788;23.710;2023-02-16T09:43:35;148726.84;;;9.32;100.00
21877;BME280;11103;43.788;23.710;2023-02-16T09:46:09;148742.19;;;9.38;100.00
21877;BME280;11103;43.788;23.710;2023-02-16T09:48:39;148763.94;;;9.47;100.00
21877;BME280;11103;43.788;23.710;2023-02-16T09:51:16;148770.31;;;9.49;100.00
21877;BME280;11103;43.788;23.710;2023-02-16T09:53:45;148817.63;;;9.68;100.00
21877;BME280;11103;43.788;23.710;2023-02-16T09:56:35;148812.53;;;9.66;100.00
21877;BME280;11103;43.788;23.710;2023-02-16T09:59:09;148795.88;;;9.59;100.00
21877;BME280;11103;43.788;23.710;2023-02-16T10:04:49;148923.81;;;10.10;100.00
21877;BME280;11103;43.788;23.710;2023-02-16T10:10:11;148971.19;;;10.29;100.00
21877;BME280;11103;43.788;23.710;2023-02-16T10:12:46;149010.84;;;10.44;100.00
21877;BME280;11103;43.788;23.710;2023-02-16T10:15:15;148954.53;;;10.22;100.00
21877;BME280;11103;43.788;23.710;2023-02-16T10:17:45;148959.69;;;10.24;100.00
21877;BME280;11103;43.788;23.710;2023-02-16T10:20:23;148957.13;;;10.23;100.00
21877;BME280;11103;43.788;23.710;2023-02-16T10:25:48;149033.91;;;10.53;100.00
21877;BME280;11103;43.788;23.710;2023-02-16T10:28:21;149062.06;;;10.64;100.00
21877;BME280;11103;43.788;23.710;2023-02-16T10:30:59;149012.13;;;10.45;100.00
21877;BME280;11103;43.788;23.710;2023-02-16T10:33:37;149024.94;;;10.50;100.00
21877;BME280;11103;43.788;23.710;2023-02-16T10:42:12;149091.53;;;10.76;100.00
21877;BME280;11103;43.788;23.710;2023-02-16T10:44:57;149109.41;;;10.83;100.00
21877;BME280;11103;43.788;23.710;2023-02-16T10:47:33;149140.13;;;10.95;100.00
21877;BME280;11103;43.788;23.710;2023-02-16T10:50:00;149106.84;;;10.82;100.00
21877;BME280;11103;43.788;23.710;2023-02-16T10:52:28;149151.69;;;11.00;100.00
21877;BME280;11103;43.788;23.710;2023-02-16T10:54:56;149169.59;;;11.07;100.00
21877;BME280;11103;43.788;23.710;2023-02-16T10:57:30;149236.19;;;11.33;100.00
21877;BME280;11103;43.788;23.710;2023-02-16T10:59:58;149261.81;;;11.43;100.00
21877;BME280;11103;43.788;23.710;2023-02-16T11:04:55;149305.38;;;11.60;100.00
21877;BME280;11103;43.788;23.710;2023-02-16T11:07:29;149327.16;;;11.69;100.00
21877;BME280;11103;43.788;23.710;2023-02-16T11:09:57;149343.84;;;11.75;100.00
21877;BME280;11103;43.788;23.710;2023-02-16T11:12:37;149378.44;;;11.89;100.00
21877;BME280;11103;43.788;23.710;2023-02-16T11:15:18;149384.81;;;11.91;100.00
21877;BME280;11103;43.788;23.710;2023-02-16T11:17:56;149425.84;;;12.08;100.00
21877;BME280;11103;43.788;23.710;2023-02-16T11:22:51;149402.75;;;11.99;100.00
21877;BME280;11103;43.788;23.710;2023-02-16T11:27:59;149416.84;;;12.04;99.73
21877;BME280;11103;43.788;23.710;2023-02-16T11:30:32;149448.91;;;12.17;100.00
21877;BME280;11103;43.788;23.710;2023-02-16T11:33:00;149443.81;;;12.15;99.65
21877;BME280;11103;43.788;23.710;2023-02-16T11:35:29;149418.13;;;12.05;98.03
21877;BME280;11103;43.788;23.710;2023-02-16T11:37:56;149482.22;;;12.30;96.88
21877;BME280;11103;43.788;23.710;2023-02-16T11:40:27;149483.53;;;12.30;96.50
21877;BME280;11103;43.788;23.710;2023-02-16T11:42:56;149487.34;;;12.32;94.53
21877;BME280;11103;43.788;23.710;2023-02-16T11:47:58;149500.16;;;12.37;91.00
21877;BME280;11103;43.788;23.710;2023-02-16T11:50:28;149533.53;;;12.50;90.96
21877;BME280;11103;43.788;23.710;2023-02-16T11:55:36;149562.97;;;12.62;94.39
21877;BME280;11103;43.788;23.710;2023-02-16T12:00:41;149582.22;;;12.69;91.14
21877;BME280;11103;43.788;23.710;2023-02-16T12:06:06;149613.00;;;12.81;91.20
21877;BME280;11103;43.788;23.710;2023-02-16T12:22:40;149614.28;;;12.82;86.65
21877;BME280;11103;43.788;23.710;2023-02-16T12:36:28;149637.38;;;12.91;82.82
21877;BME280;11103;43.788;23.710;2023-02-16T12:42:00;149743.88;;;13.33;83.66
21877;BME280;11103;43.788;23.710;2023-02-16T12:47:00;149819.56;;;13.62;80.68
21877;BME280;11103;43.788;23.710;2023-02-16T12:49:42;149795.22;;;13.53;80.41
21877;BME280;11103;43.788;23.710;2023-02-16T12:52:19;149813.16;;;13.60;78.75
21877;BME280;11103;43.788;23.710;2023-02-16T12:54:51;149732.34;;;13.28;77.96
21877;BME280;11103;43.788;23.710;2023-02-16T12:57:19;149779.81;;;13.47;80.09
21877;BME280;11103;43.788;23.710;2023-02-16T13:00:13;149713.13;;;13.21;75.88
21877;BME280;11103;43.788;23.710;2023-02-16T13:02:46;149556.56;;;12.59;79.05
21877;BME280;11103;43.788;23.710;2023-02-16T13:05:28;149728.47;;;13.27;80.75
21877;BME280;11103;43.788;23.710;2023-02-16T13:10:56;149826.00;;;13.65;79.06
21877;BME280;11103;43.788;23.710;2023-02-16T13:13:30;149873.47;;;13.84;77.91
21877;BME280;11103;43.788;23.710;2023-02-16T13:16:17;149792.63;;;13.52;75.08
21877;BME280;11103;43.788;23.710;2023-02-16T13:18:45;149675.84;;;13.06;76.25
21877;BME280;11103;43.788;23.710;2023-02-16T13:21:42;149697.72;;;13.15;77.26
21877;BME280;11103;43.788;23.710;2023-02-16T13:24:31;149639.94;;;12.92;76.92
21877;BME280;11103;43.788;23.710;2023-02-16T13:30:45;149749.00;;;13.35;79.00
21877;BME280;11103;43.788;23.710;2023-02-16T13:36:58;149913.28;;;13.99;75.52
21877;BME280;11103;43.788;23.710;2023-02-16T13:39:36;149852.94;;;13.76;74.22
21877;BME280;11103;43.788;23.710;2023-02-16T13:44:43;149954.38;;;14.15;74.21
21877;BME280;11103;43.788;23.710;2023-02-16T13:47:17;149885.06;;;13.88;69.97
21877;BME280;11103;43.788;23.710;2023-02-16T13:49:46;149840.09;;;13.70;70.29
21877;BME280;11103;43.788;23.710;2023-02-16T13:52:35;149865.75;;;13.81;69.90
21877;BME280;11103;43.788;23.710;2023-02-16T13:55:04;149826.00;;;13.65;69.72
21877;BME280;11103;43.788;23.710;2023-02-16T14:00:42;149867.06;;;13.81;71.92
21877;BME280;11103;43.788;23.710;2023-02-16T14:05:37;149936.38;;;14.08;70.92
21877;BME280;11103;43.788;23.710;2023-02-16T14:13:16;149962.09;;;14.18;69.32
21877;BME280;11103;43.788;23.710;2023-02-16T14:15:52;149974.91;;;14.23;70.29
21877;BME280;11103;43.788;23.710;2023-02-16T14:21:03;149927.41;;;14.05;68.83
21877;BME280;11103;43.788;23.710;2023-02-16T14:23:30;149959.50;;;14.17;69.73
21877;BME280;11103;43.788;23.710;2023-02-16T14:26:01;149969.75;;;14.21;68.03
21877;BME280;11103;43.788;23.710;2023-02-16T14:28:49;149964.63;;;14.19;68.86
21877;BME280;11103;43.788;23.710;2023-02-16T14:31:19;149973.63;;;14.23;69.11
21877;BME280;11103;43.788;23.710;2023-02-16T14:34:02;149959.50;;;14.17;69.90
21877;BME280;11103;43.788;23.710;2023-02-16T14:36:29;149954.38;;;14.15;69.68
21877;BME280;11103;43.788;23.710;2023-02-16T14:38:57;149974.91;;;14.23;69.72
21877;BME280;11103;43.788;23.710;2023-02-16T14:41:31;150007.03;;;14.36;72.29
21877;BME280;11103;43.788;23.710;2023-02-16T14:57:15;149868.34;;;13.82;74.93
21877;BME280;11103;43.788;23.710;2023-02-16T15:00:02;149863.22;;;13.80;74.71
21877;BME280;11103;43.788;23.710;2023-02-16T15:02:38;149783.63;;;13.48;76.39
21877;BME280;11103;43.788;23.710;2023-02-16T15:05:18;149734.88;;;13.29;79.48
21877;BME280;11103;43.788;23.710;2023-02-16T15:07:48;149647.63;;;12.95;82.00